createdAt,value
2023-01-13T00:01:37.663Z,-1.03
2023-01-13T00:04:08.402Z,-0.86
2023-01-13T00:06:39.035Z,-0.73
2023-01-13T00:09:09.545Z,-0.62
2023-01-13T00:11:40.092Z,-0.54
2023-01-13T00:14:12.198Z,-0.47
2023-01-13T00:16:42.749Z,-0.40
2023-01-13T00:19:13.399Z,-0.36
2023-01-13T00:21:44.881Z,-0.29
2023-01-13T00:24:15.511Z,-0.16
2023-01-13T00:26:46.116Z,-0.12
2023-01-13T00:29:21.211Z,0.01
2023-01-13T00:31:53.125Z,0.09
2023-01-13T00:34:24.680Z,0.18
2023-01-13T00:36:55.574Z,0.23
2023-01-13T00:39:26.227Z,0.27
2023-01-13T00:42:13.450Z,0.24
2023-01-13T00:44:45.701Z,0.36
2023-01-13T00:47:16.512Z,0.47
2023-01-13T00:49:47.679Z,0.55
2023-01-13T00:52:18.567Z,0.60
2023-01-13T00:54:49.865Z,0.68
2023-01-13T00:57:21.336Z,0.72
2023-01-13T00:59:53.736Z,0.69
2023-01-13T01:02:24.798Z,0.71
2023-01-13T01:04:55.517Z,0.75
2023-01-13T01:07:26.174Z,0.85
2023-01-13T01:09:57.033Z,0.90
2023-01-13T01:12:27.697Z,0.93
2023-01-13T01:15:00.012Z,0.97
2023-01-13T01:17:31.424Z,0.77
2023-01-13T01:20:01.845Z,0.91
2023-01-13T01:22:32.476Z,0.74
2023-01-13T01:25:02.935Z,0.59
2023-01-13T01:27:33.377Z,0.51
2023-01-13T01:30:05.577Z,0.40
2023-01-13T01:32:37.524Z,0.25
2023-01-13T01:35:08.845Z,0.28
2023-01-13T01:37:39.337Z,0.29
2023-01-13T01:40:10.877Z,0.41
2023-01-13T01:42:58.337Z,0.63
2023-01-13T01:45:33.418Z,0.64
2023-01-13T01:48:07.388Z,0.78
2023-01-13T01:50:39.083Z,0.82
2023-01-13T01:53:15.493Z,0.82
2023-01-13T01:55:46.322Z,0.99
2023-01-13T01:58:21.804Z,1.13
2023-01-13T02:00:54.401Z,1.29
2023-01-13T02:03:25.429Z,1.39
2023-01-13T02:05:56.243Z,1.43
2023-01-13T02:08:26.907Z,1.60
2023-01-13T02:10:57.683Z,1.61
2023-01-13T02:13:27.080Z,1.61
2023-01-13T02:16:06.263Z,1.55
2023-01-13T02:18:53.422Z,1.53
2023-01-13T02:21:43.983Z,1.37
2023-01-13T02:24:56.505Z,1.28
2023-01-13T02:27:46.230Z,1.01
2023-01-13T02:30:43.537Z,0.85
2023-01-13T02:33:31.578Z,0.80
2023-01-13T02:36:08.559Z,0.68
2023-01-13T02:38:46.695Z,0.54
2023-01-13T02:41:54.910Z,0.45
2023-01-13T02:44:31.259Z,0.22
2023-01-13T02:47:09.273Z,0.18
2023-01-13T02:49:43.598Z,-0.10
2023-01-13T02:52:16.979Z,-0.16
2023-01-13T02:54:51.915Z,0.01
2023-01-13T02:57:25.034Z,-0.09
2023-01-13T02:59:58.468Z,-0.11
2023-01-13T03:02:31.669Z,-0.15
2023-01-13T03:05:03.123Z,-0.13
2023-01-13T03:07:57.933Z,-0.08
2023-01-13T03:10:48.344Z,0.05
2023-01-13T03:13:31.836Z,0.19
2023-01-13T03:16:13.999Z,0.30
2023-01-13T03:18:53.713Z,0.41
2023-01-13T03:21:28.886Z,0.51
2023-01-13T03:24:06.328Z,0.48
2023-01-13T03:26:44.000Z,0.55
2023-01-13T03:29:21.531Z,0.35
2023-01-13T03:32:00.950Z,0.58
2023-01-13T03:34:38.023Z,0.67
2023-01-13T03:37:11.095Z,0.75
2023-01-13T03:39:47.338Z,0.81
2023-01-13T03:42:22.423Z,0.88
2023-01-13T03:44:57.274Z,0.91
2023-01-13T03:47:34.174Z,0.97
2023-01-13T03:50:09.312Z,1.04
2023-01-13T03:52:44.068Z,1.07
2023-01-13T03:55:19.379Z,1.04
2023-01-13T03:57:55.497Z,0.92
2023-01-13T04:00:29.262Z,1.10
2023-01-13T04:03:07.763Z,1.11
2023-01-13T04:05:44.824Z,1.14
2023-01-13T04:08:22.287Z,1.18
2023-01-13T04:10:56.291Z,1.23
2023-01-13T04:13:31.315Z,1.29
2023-01-13T04:16:08.488Z,1.35
2023-01-13T04:18:41.763Z,1.25
2023-01-13T04:21:14.136Z,1.46
2023-01-13T04:23:45.396Z,1.54
2023-01-13T04:26:16.023Z,1.63
2023-01-13T04:28:46.518Z,1.73
2023-01-13T04:31:17.379Z,1.76
2023-01-13T04:33:48.043Z,1.81
2023-01-13T04:36:20.537Z,1.84
2023-01-13T04:38:51.117Z,1.94
2023-01-13T04:41:21.805Z,2.03
2023-01-13T04:43:52.532Z,2.03
2023-01-13T04:46:23.265Z,2.04
2023-01-13T04:48:53.898Z,1.84
2023-01-13T04:51:26.091Z,2.04
2023-01-13T04:53:56.599Z,2.06
2023-01-13T04:56:27.218Z,2.04
2023-01-13T04:58:57.656Z,2.05
2023-01-13T05:01:28.326Z,2.05
2023-01-13T05:03:58.979Z,1.93
2023-01-13T05:06:31.179Z,2.02
2023-01-13T05:09:01.728Z,1.86
2023-01-13T05:11:49.269Z,1.94
2023-01-13T05:14:36.560Z,1.98
2023-01-13T05:17:07.125Z,2.00
2023-01-13T05:19:39.967Z,2.00
2023-01-13T05:22:28.997Z,1.95
2023-01-13T05:25:16.384Z,1.96
2023-01-13T05:27:47.086Z,1.92
2023-01-13T05:30:18.290Z,1.80
2023-01-13T05:32:49.043Z,1.89
2023-01-13T05:35:19.950Z,1.79
2023-01-13T05:37:52.318Z,1.71
2023-01-13T05:40:39.653Z,1.72
2023-01-13T05:43:23.757Z,1.78
2023-01-13T05:45:58.665Z,1.82
2023-01-13T05:48:31.552Z,1.71
2023-01-13T05:51:03.032Z,1.80
2023-01-13T05:53:35.692Z,1.73
2023-01-13T05:56:07.795Z,1.69
2023-01-13T05:58:38.708Z,1.75
2023-01-13T06:01:10.991Z,1.46
2023-01-13T06:03:41.687Z,1.62
2023-01-13T06:06:12.202Z,1.68
2023-01-13T06:08:44.726Z,1.65
2023-01-13T06:11:15.235Z,1.61
2023-01-13T06:13:45.751Z,1.55
2023-01-13T06:16:16.410Z,1.48
2023-01-13T06:18:46.896Z,1.36
2023-01-13T06:21:17.383Z,1.31
2023-01-13T06:23:49.650Z,1.23
2023-01-13T06:26:23.215Z,1.19
2023-01-13T06:28:54.023Z,1.13
2023-01-13T06:31:24.925Z,1.10
2023-01-13T06:33:59.788Z,1.03
2023-01-13T06:36:34.033Z,1.01
2023-01-13T06:39:07.589Z,1.04
2023-01-13T06:41:54.827Z,1.03
2023-01-13T06:44:27.178Z,1.00
2023-01-13T06:46:57.801Z,0.98
2023-01-13T06:49:28.419Z,0.92
2023-01-13T06:51:59.116Z,0.85
2023-01-13T06:54:31.623Z,0.87
2023-01-13T06:57:02.252Z,0.84
2023-01-13T06:59:35.121Z,0.81
2023-01-13T07:02:06.166Z,0.22
2023-01-13T07:04:36.877Z,0.75
2023-01-13T07:07:08.611Z,0.72
2023-01-13T07:09:40.712Z,0.72
2023-01-13T07:12:11.378Z,0.73
2023-01-13T07:14:58.885Z,0.72
2023-01-13T07:17:29.307Z,0.73
2023-01-13T07:20:02.606Z,0.73
2023-01-13T07:22:33.104Z,0.64
2023-01-13T07:25:05.191Z,0.73
2023-01-13T07:27:35.699Z,0.75
2023-01-13T07:30:06.955Z,0.69
2023-01-13T07:32:37.522Z,0.70
2023-01-13T07:35:09.001Z,0.71
2023-01-13T07:37:40.641Z,0.67
2023-01-13T07:40:14.204Z,0.57
2023-01-13T07:43:01.722Z,0.65
2023-01-13T07:45:32.269Z,0.64
2023-01-13T07:48:02.761Z,0.65
2023-01-13T07:50:33.253Z,0.63
2023-01-13T07:53:03.815Z,0.62
2023-01-13T07:55:35.877Z,0.57
2023-01-13T07:58:07.273Z,0.54
2023-01-13T08:00:38.737Z,0.53
2023-01-13T08:03:12.325Z,0.44
2023-01-13T08:05:43.034Z,0.38
2023-01-13T08:08:15.833Z,0.28
2023-01-13T08:10:48.810Z,0.27
2023-01-13T08:13:28.173Z,0.20
2023-01-13T08:16:04.449Z,-0.06
2023-01-13T08:19:00.245Z,0.11
2023-01-13T08:38:08.890Z,-0.57
2023-01-13T09:34:25.340Z,-2.27
2023-01-13T09:36:56.764Z,-2.36
2023-01-13T09:39:27.304Z,-2.34
2023-01-13T09:42:17.425Z,-2.47
2023-01-13T09:44:51.379Z,-2.47
2023-01-13T09:47:34.788Z,-2.51
2023-01-13T09:50:20.809Z,-2.53
2023-01-13T09:52:54.345Z,-2.48
2023-01-13T09:55:31.481Z,-2.49
2023-01-13T09:58:08.671Z,-2.53
2023-01-13T10:00:48.027Z,-2.48
2023-01-13T10:03:25.289Z,-2.42
2023-01-13T10:06:05.670Z,-2.32
2023-01-13T10:08:41.355Z,-2.69
2023-01-13T10:11:34.631Z,-2.45
2023-01-13T10:14:17.598Z,-2.49
2023-01-13T10:17:00.131Z,-2.68
2023-01-13T10:19:39.920Z,-2.59
2023-01-13T10:22:30.940Z,-2.59
2023-01-13T10:25:35.218Z,-2.70
2023-01-13T10:28:13.249Z,-2.75
2023-01-13T10:30:47.108Z,-2.87
2023-01-13T10:34:07.107Z,-2.83
2023-01-13T10:40:22.991Z,-2.68
2023-01-13T10:47:28.016Z,-2.73
2023-01-13T10:50:21.267Z,-2.65
2023-01-13T10:53:04.379Z,-2.75
2023-01-13T10:56:04.866Z,-2.79
2023-01-13T10:58:36.407Z,-2.74
2023-01-13T11:01:10.666Z,-2.57
2023-01-13T11:03:45.474Z,-2.46
2023-01-13T11:06:25.374Z,-2.38
2023-01-13T11:08:59.411Z,-2.33
2023-01-13T11:11:48.455Z,-2.21
2023-01-13T11:14:38.038Z,-2.16
2023-01-13T11:17:32.172Z,-2.08
2023-01-13T11:20:17.758Z,-2.27
2023-01-13T11:22:52.559Z,-2.10
2023-01-13T11:25:33.413Z,-1.97
2023-01-13T11:28:17.915Z,-1.98
2023-01-13T11:30:54.427Z,-2.32
2023-01-13T11:33:42.034Z,-1.95
2023-01-13T11:36:20.407Z,-1.87
2023-01-13T11:38:54.567Z,-1.85
2023-01-13T11:41:35.710Z,-2.04
2023-01-13T11:44:21.236Z,-2.27
2023-01-13T11:46:54.812Z,-1.78
2023-01-13T11:49:30.102Z,-2.10
2023-01-13T11:52:08.112Z,-1.67
2023-01-13T11:55:12.408Z,-1.24
2023-01-13T11:58:07.392Z,-1.28
2023-01-13T12:00:58.742Z,-1.36
2023-01-13T12:03:42.414Z,-1.76
2023-01-13T12:06:26.351Z,-1.43
2023-01-13T12:09:28.498Z,-1.50
2023-01-13T12:12:24.082Z,-1.42
2023-01-13T12:15:11.658Z,-1.40
2023-01-13T12:17:59.994Z,-1.40
2023-01-13T12:20:41.803Z,-1.34
2023-01-13T12:23:25.227Z,-1.22
2023-01-13T12:26:02.266Z,-1.32
2023-01-13T12:28:47.589Z,-1.02
2023-01-13T12:31:21.862Z,-1.02
2023-01-13T12:38:29.180Z,-1.47
2023-01-13T12:41:09.472Z,-1.14
2023-01-13T12:44:08.107Z,-1.51
2023-01-13T12:47:01.921Z,-1.32
2023-01-13T12:49:49.460Z,-1.46
2023-01-13T12:52:20.988Z,-1.88
2023-01-13T12:55:20.007Z,-1.51
2023-01-13T12:58:18.815Z,-1.55
2023-01-13T13:01:03.057Z,-1.72
2023-01-13T13:03:38.399Z,-1.82
2023-01-13T13:06:20.581Z,-2.02
2023-01-13T13:09:05.754Z,-2.18
2023-01-13T13:15:22.225Z,-2.73
2023-01-13T13:22:20.290Z,-2.59
2023-01-13T13:25:32.391Z,-2.74
2023-01-13T13:32:15.568Z,-2.90
2023-01-13T13:35:15.925Z,-3.05
2023-01-13T13:38:32.323Z,-3.01
2023-01-13T13:44:55.555Z,-3.08
2023-01-13T13:50:40.407Z,-3.16
2023-01-13T13:56:56.614Z,-3.36
2023-01-13T14:08:07.321Z,-3.69
2023-01-13T14:10:43.407Z,-3.72
2023-01-13T14:13:45.462Z,-3.79
2023-01-13T14:20:51.094Z,-4.11
2023-01-13T14:24:59.345Z,-4.05
2023-01-13T14:28:02.266Z,-4.11
2023-01-13T14:49:38.415Z,-4.43
2023-01-13T14:53:32.182Z,-4.37
2023-01-13T15:15:07.818Z,-4.52
2023-01-13T15:18:58.615Z,-4.56
2023-01-13T15:21:40.513Z,-4.65
2023-01-13T15:25:20.362Z,-4.63
2023-01-13T15:28:36.220Z,-4.86
2023-01-13T15:31:21.877Z,-4.65
2023-01-13T15:34:36.395Z,-4.66
2023-01-13T15:45:13.706Z,-4.94
2023-01-13T15:52:12.343Z,-5.10
2023-01-13T15:59:02.145Z,-5.32
2023-01-13T16:32:20.931Z,-6.37
2023-01-13T16:41:44.679Z,-6.47
2023-01-13T16:54:52.152Z,-6.71
2023-01-13T17:08:40.332Z,-7.02
2023-01-13T17:14:36.190Z,-6.95
2023-01-13T17:27:25.374Z,-7.09
2023-01-13T17:38:33.307Z,-7.24
2023-01-13T17:41:31.136Z,-7.37
2023-01-13T17:54:47.823Z,-7.45
2023-01-13T17:58:16.560Z,-7.49
2023-01-13T18:13:10.533Z,-7.56
2023-01-13T18:54:31.776Z,-7.95
2023-01-13T19:00:44.819Z,-8.02
2023-01-13T19:03:15.546Z,-8.05
2023-01-13T19:05:48.245Z,-8.04
2023-01-13T19:08:19.164Z,-8.05
2023-01-13T19:10:50.779Z,-8.11
2023-01-13T19:13:21.419Z,-8.13
2023-01-13T19:15:53.736Z,-8.23
2023-01-13T19:18:27.833Z,-8.26
2023-01-13T19:21:05.246Z,-8.34
2023-01-13T19:23:36.636Z,-8.32
2023-01-13T19:26:09.107Z,-8.39
2023-01-13T19:28:41.821Z,-8.61
2023-01-13T19:31:21.454Z,-8.46
2023-01-13T19:33:52.310Z,-8.76
2023-01-13T19:36:23.330Z,-8.51
2023-01-13T19:38:54.068Z,-8.56
2023-01-13T19:41:41.185Z,-8.66
2023-01-13T19:44:30.866Z,-8.89
2023-01-13T19:47:04.535Z,-8.74
2023-01-13T19:49:35.197Z,-8.75
2023-01-13T19:52:08.890Z,-8.79
2023-01-13T19:54:39.955Z,-8.82
2023-01-13T19:57:11.885Z,-8.95
2023-01-13T19:59:43.130Z,-8.91
2023-01-13T20:02:18.302Z,-9.02
2023-01-13T20:04:49.736Z,-9.06
2023-01-13T20:07:20.942Z,-9.07
2023-01-13T20:09:51.638Z,-9.14
2023-01-13T20:12:22.688Z,-9.14
2023-01-13T20:14:53.546Z,-9.35
2023-01-13T20:17:27.881Z,-9.33
2023-01-13T20:19:59.767Z,-9.26
2023-01-13T20:22:30.564Z,-9.31
2023-01-13T20:25:01.290Z,-9.40
2023-01-13T20:27:31.853Z,-9.47
2023-01-13T20:30:04.377Z,-9.58
2023-01-13T20:32:36.717Z,-9.56
2023-01-13T20:35:08.652Z,-9.62
2023-01-13T20:37:41.088Z,-9.65
2023-01-13T20:40:16.160Z,-9.68
2023-01-13T20:42:48.480Z,-9.69
2023-01-13T20:45:22.448Z,-9.78
2023-01-13T20:47:54.641Z,-9.84
2023-01-13T20:50:25.310Z,-9.83
2023-01-13T20:52:55.888Z,-10.33
2023-01-13T20:55:27.169Z,-9.91
2023-01-13T20:57:58.897Z,-9.95
2023-01-13T21:03:16.124Z,-10.00
2023-01-13T21:05:46.664Z,-10.01
2023-01-13T21:08:17.263Z,-10.00
2023-01-13T21:10:47.938Z,-9.99
2023-01-13T21:13:35.202Z,-10.05
2023-01-13T21:16:06.002Z,-10.18
2023-01-13T21:18:55.537Z,-10.22
2023-01-13T21:21:26.654Z,-10.29
2023-01-13T21:23:57.650Z,-10.34
2023-01-13T21:26:28.587Z,-10.46
2023-01-13T21:29:00.759Z,-10.79
2023-01-13T21:31:31.291Z,-10.49
2023-01-13T21:34:03.346Z,-10.49
2023-01-13T21:36:33.785Z,-10.54
2023-01-13T21:39:04.331Z,-10.57
2023-01-13T21:41:51.590Z,-10.58
2023-01-13T21:44:39.901Z,-10.54
2023-01-13T21:47:34.626Z,-10.86
2023-01-13T21:50:09.780Z,-10.51
2023-01-13T21:52:40.444Z,-10.78
2023-01-13T21:55:25.673Z,-10.61
2023-01-13T21:57:57.676Z,-10.64
2023-01-13T22:00:30.678Z,-10.79
2023-01-13T22:03:01.092Z,-10.77
2023-01-13T22:05:36.287Z,-11.10
2023-01-13T22:08:07.282Z,-10.88
2023-01-13T22:10:58.225Z,-10.98
2023-01-13T22:13:47.632Z,-11.01
2023-01-13T22:16:18.616Z,-11.09
2023-01-13T22:18:49.085Z,-11.14
2023-01-13T22:21:21.407Z,-11.29
2023-01-13T22:23:51.879Z,-11.21
2023-01-13T22:26:22.413Z,-11.30
2023-01-13T22:28:52.865Z,-11.32
2023-01-13T22:31:25.633Z,-11.39
2023-01-13T22:33:57.135Z,-12.19
2023-01-13T22:36:29.272Z,-11.51
2023-01-13T22:39:01.305Z,-11.55
2023-01-13T22:41:31.756Z,-11.62
2023-01-13T22:44:02.241Z,-11.62
2023-01-13T22:46:32.666Z,-11.66
2023-01-13T22:49:03.195Z,-11.90
2023-01-13T22:51:35.485Z,-11.76
2023-01-13T22:54:05.970Z,-11.80
2023-01-13T22:56:36.985Z,-11.82
2023-01-13T22:59:10.375Z,-11.88
2023-01-13T23:01:40.924Z,-11.95
2023-01-13T23:04:13.671Z,-11.98
2023-01-13T23:06:45.802Z,-12.01
2023-01-13T23:09:16.298Z,-12.37
2023-01-13T23:11:47.836Z,-12.40
2023-01-13T23:14:18.532Z,-12.48
2023-01-13T23:16:49.314Z,-12.31
2023-01-13T23:19:19.847Z,-12.26
2023-01-13T23:21:51.904Z,-12.43
2023-01-13T23:24:26.605Z,-12.43
2023-01-13T23:26:57.033Z,-12.45
2023-01-13T23:29:27.561Z,-12.41
2023-01-13T23:31:58.030Z,-12.49
2023-01-13T23:34:28.648Z,-12.50
2023-01-13T23:37:01.001Z,-12.68
2023-01-13T23:39:31.651Z,-12.58
2023-01-13T23:42:02.245Z,-12.58
2023-01-13T23:44:32.864Z,-12.65
2023-01-13T23:47:18.061Z,-12.69
2023-01-13T23:49:48.986Z,-12.88
2023-01-13T23:52:22.184Z,-12.62
2023-01-13T23:54:53.996Z,-12.63
2023-01-13T23:57:26.795Z,-12.59
2023-01-13T23:59:58.957Z,-12.43
